| time (UTC) | temp F | wind direction | speed knots | gust knots | rain 1hr in | rain 24hr in | rain mn in | humidity % | barometer mb |
| 20260503225007 | 83 | 290 | 1.7 | 6.1 | 0.00 | 0.00 | 0.00 | 46 | 1008.1 |
| 20260503224007 | 84 | 22 | 1.7 | 2.6 | 0.00 | 0.00 | 0.00 | 46 | 1008.1 |
| 20260503223007 | 82 | 32 | 2.6 | 7.8 | 0.00 | 0.00 | 0.00 | 48 | 1008.2 |
| 20260503222007 | 82 | 15 | 4.3 | 7.0 | 0.00 | 0.00 | 0.00 | 48 | 1008.3 |
| 20260503221007 | 82 | 355 | 1.7 | 7.0 | 0.00 | 0.00 | 0.00 | 49 | 1008.4 |
| 20260503220006 | 84 | 318 | 1.7 | 5.2 | 0.00 | 0.00 | 0.00 | 48 | 1008.5 |
| 20260503215007 | 84 | 323 | 3.5 | 6.1 | 0.00 | 0.00 | 0.00 | 42 | 1008.6 |
| 20260503214006 | 85 | 27 | 2.6 | 6.1 | 0.00 | 0.00 | 0.00 | 42 | 1008.6 |
| 20260503213006 | 85 | 12 | 1.7 | 7.8 | 0.00 | 0.00 | 0.00 | 39 | 1008.7 |
| 20260503212007 | 85 | 71 | 7.0 | 8.7 | 0.00 | 0.00 | 0.00 | 38 | 1008.8 |
| 20260503211006 | 84 | 45 | 5.2 | 7.8 | 0.00 | 0.00 | 0.00 | 39 | 1008.8 |
| 20260503210006 | 84 | 72 | 5.2 | 10.4 | 0.00 | 0.00 | 0.00 | 41 | 1008.9 |
| 20260503205006 | 83 | 61 | 4.3 | 7.8 | 0.00 | 0.00 | 0.00 | 44 | 1009.1 |
| 20260503204006 | 83 | 52 | 5.2 | 10.4 | 0.00 | 0.00 | 0.00 | 43 | 1009.3 |
| 20260503203006 | 82 | 67 | 6.1 | 10.4 | 0.00 | 0.00 | 0.00 | 46 | 1009.4 |
| 20260503202006 | 81 | 67 | 7.0 | 10.4 | 0.00 | 0.00 | 0.00 | 48 | 1009.4 |
| 20260503201008 | 81 | 59 | 6.1 | 10.4 | 0.00 | 0.00 | 0.00 | 49 | 1009.4 |
| 20260503201006 | 81 | 61 | 7.0 | 10.4 | 0.00 | 0.00 | 0.00 | 49 | 1009.4 |
| 20260503200006 | 81 | 71 | 6.1 | 10.4 | 0.00 | 0.00 | 0.00 | 48 | 1009.5 |
| 20260503195006 | 81 | 63 | 4.3 | 10.4 | 0.00 | 0.00 | 0.00 | 50 | 1009.6 |
| 20260503194006 | 81 | 53 | 6.1 | 10.4 | 0.00 | 0.00 | 0.00 | 48 | 1009.7 |
| 20260503193006 | 80 | 41 | 5.2 | 8.7 | 0.00 | 0.00 | 0.00 | 50 | 1009.7 |
| 20260503192006 | 79 | 36 | 6.1 | 14.8 | 0.00 | 0.00 | 0.00 | 50 | 1009.8 |
| 20260503191006 | 79 | 34 | 5.2 | 8.7 | 0.00 | 0.00 | 0.00 | 50 | 1010.0 |
| 20260503190007 | 78 | 53 | 6.1 | 10.4 | 0.00 | 0.00 | 0.00 | 50 | 1010.1 |
| 20260503185006 | 78 | 46 | 5.2 | 10.4 | 0.00 | 0.00 | 0.00 | 52 | 1010.1 |
| 20260503184006 | 77 | 59 | 7.0 | 10.4 | 0.00 | 0.00 | 0.00 | 53 | 1010.3 |
| 20260503183008 | 77 | 60 | 5.2 | 10.4 | 0.00 | 0.00 | 0.00 | 53 | 1010.2 |
| 20260503183006 | 77 | 54 | 5.2 | 10.4 | 0.00 | 0.00 | 0.00 | 53 | 1010.2 |
| 20260503182007 | 76 | 53 | 6.1 | 10.4 | 0.00 | 0.00 | 0.00 | 53 | 1010.2 |
| 20260503181006 | 75 | 58 | 6.1 | 10.4 | 0.00 | 0.00 | 0.00 | 54 | 1010.2 |
| 20260503180006 | 75 | 58 | 5.2 | 12.2 | 0.00 | 0.00 | 0.00 | 56 | 1010.2 |
| 20260503175006 | 75 | 70 | 6.1 | 10.4 | 0.00 | 0.00 | 0.00 | 56 | 1010.4 |
| 20260503174006 | 75 | 42 | 2.6 | 7.0 | 0.00 | 0.00 | 0.00 | 57 | 1010.6 |
| 20260503173006 | 74 | 64 | 2.6 | 5.2 | 0.00 | 0.00 | 0.00 | 57 | 1010.6 |
| 20260503172006 | 74 | 67 | 2.6 | 7.0 | 0.00 | 0.00 | 0.00 | 57 | 1010.6 |
| 20260503171006 | 74 | 54 | 4.3 | 7.8 | 0.00 | 0.00 | 0.00 | 56 | 1010.5 |
| 20260503151006 | 65 | 67 | 5.2 | 10.4 | 0.00 | 0.00 | 0.00 | 70 | 1010.7 |
| 20260503131007 | 60 | 54 | 4.3 | 6.1 | 0.00 | 0.00 | 0.00 | 77 | 1010.4 |
| 20260503131005 | 60 | 60 | 3.5 | 6.1 | 0.00 | 0.00 | 0.00 | 77 | 1010.4 |
| 20260503081005 | 52 | 37 | 0.0 | 1.7 | 0.00 | 0.00 | 0.00 | 97 | 1011.9 |
| 20260503072005 | 51 | 145 | 0.0 | 1.7 | 0.00 | 0.00 | 0.00 | 98 | 1012.2 |
| 20260503071005 | 51 | 142 | 0.0 | 0.9 | 0.00 | 0.00 | 0.00 | 97 | 1012.1 |
| 20260503055005 | 52 | 39 | 0.9 | 1.7 | 0.00 | 0.00 | 0.00 | 97 | 1012.7 |
| 20260503054005 | 52 | 68 | 0.0 | 0.9 | 0.00 | 0.00 | 0.00 | 96 | 1012.7 |
| 20260503053005 | 53 | 120 | 0.0 | 0.0 | 0.00 | 0.00 | 0.00 | 96 | 1012.9 |
| 20260503052006 | 53 | 150 | 0.0 | 0.0 | 0.00 | 0.00 | 0.00 | 96 | 1012.9 |
| 20260503051005 | 53 | 150 | 0.0 | 0.0 | 0.00 | 0.00 | 0.00 | 96 | 1012.9 |
| 20260503050005 | 53 | 150 | 0.0 | 0.0 | 0.00 | 0.00 | 0.00 | 96 | 1012.9 |
| 20260503045005 | 53 | 150 | 0.0 | 0.9 | 0.00 | 0.00 | 0.00 | 95 | 1012.8 |
| 20260503044007 | 54 | 157 | 0.0 | 0.9 | 0.00 | 0.00 | 0.00 | 95 | 1012.8 |
| 20260503044005 | 54 | 160 | 0.0 | 0.9 | 0.00 | 0.00 | 0.00 | 95 | 1012.7 |
| 20260503043005 | 54 | 163 | 0.0 | 1.7 | 0.00 | 0.00 | 0.00 | 95 | 1012.6 |
| 20260503042005 | 54 | 170 | 0.9 | 2.6 | 0.00 | 0.00 | 0.00 | 94 | 1012.5 |
| 20260503041005 | 55 | 159 | 0.9 | 1.7 | 0.00 | 0.00 | 0.00 | 94 | 1012.4 |
| 20260503035005 | 56 | 209 | 0.0 | 1.7 | 0.00 | 0.00 | 0.00 | 92 | 1012.2 |
| 20260503034005 | 56 | 200 | 0.9 | 2.6 | 0.00 | 0.00 | 0.00 | 92 | 1012.0 |
| 20260503033005 | 57 | 205 | 0.9 | 2.6 | 0.00 | 0.00 | 0.00 | 91 | 1011.7 |
| 20260503032005 | 57 | 256 | 0.0 | 2.6 | 0.00 | 0.00 | 0.00 | 87 | 1011.6 |
| 20260503031005 | 57 | 209 | 0.0 | 2.6 | 0.00 | 0.00 | 0.00 | 86 | 1011.6 |
| 20260503030005 | 58 | 210 | 0.9 | 2.6 | 0.00 | 0.00 | 0.00 | 85 | 1011.6 |
| 20260503025005 | 59 | 202 | 0.9 | 2.6 | 0.00 | 0.00 | 0.00 | 84 | 1011.6 |
| 20260503024005 | 59 | 228 | 0.9 | 4.3 | 0.00 | 0.00 | 0.00 | 84 | 1011.5 |
| 20260503023005 | 59 | 223 | 1.7 | 5.2 | 0.00 | 0.00 | 0.00 | 84 | 1011.5 |
| 20260503022005 | 60 | 204 | 1.7 | 2.6 | 0.00 | 0.00 | 0.00 | 83 | 1011.5 |
| 20260503021005 | 60 | 184 | 1.7 | 4.3 | 0.00 | 0.00 | 0.00 | 82 | 1011.6 |
| 20260503020005 | 61 | 244 | 2.6 | 7.0 | 0.00 | 0.00 | 0.00 | 81 | 1011.7 |
| 20260503015005 | 60 | 326 | 1.7 | 7.8 | 0.00 | 0.00 | 0.00 | 81 | 1011.7 |
| 20260503014008 | 61 | 224 | 1.7 | 7.0 | 0.00 | 0.00 | 0.00 | 81 | 1011.7 |
| 20260503014005 | 61 | 224 | 1.7 | 5.2 | 0.00 | 0.00 | 0.00 | 81 | 1011.7 |
| 20260503013007 | 62 | 283 | 1.7 | 5.2 | 0.00 | 0.00 | 0.00 | 80 | 1011.7 |
| 20260503013005 | 61 | 276 | 0.9 | 5.2 | 0.00 | 0.00 | 0.00 | 80 | 1011.7 |
| 20260503012005 | 61 | 223 | 0.9 | 2.6 | 0.00 | 0.00 | 0.00 | 82 | 1011.6 |
| 20260503011007 | 61 | 263 | 1.7 | 2.6 | 0.00 | 0.00 | 0.00 | 82 | 1011.7 |
| 20260503010007 | 61 | 241 | 1.7 | 5.2 | 0.00 | 0.00 | 0.00 | 83 | 1011.8 |
| 20260503005007 | 61 | 218 | 1.7 | 5.2 | 0.00 | 0.00 | 0.00 | 83 | 1011.9 |
| 20260503004008 | 61 | 229 | 1.7 | 6.1 | 0.00 | 0.00 | 0.00 | 83 | 1012.0 |
| 20260503003006 | 61 | 249 | 1.7 | 7.8 | 0.00 | 0.00 | 0.00 | 83 | 1012.0 |
| 20260503002007 | 60 | 246 | 2.6 | 7.0 | 0.00 | 0.00 | 0.00 | 84 | 1012.1 |
| 20260503001005 | 60 | 242 | 2.6 | 8.7 | 0.00 | 0.00 | 0.00 | 83 | 1012.1 |
| 20260503000007 | 61 | 239 | 1.7 | 6.1 | 0.00 | 0.00 | 0.00 | 83 | 1012.2 |
| 20260502235007 | 60 | 275 | 2.6 | 10.4 | 0.00 | 0.00 | 0.00 | 85 | 1012.4 |
| 20260502234007 | 60 | 294 | 1.7 | 10.4 | 0.00 | 0.00 | 0.00 | 86 | 1012.5 |
| 20260502234005 | 60 | 304 | 1.7 | 10.4 | 0.00 | 0.00 | 0.00 | 86 | 1012.5 |
| 20260502233005 | 60 | 301 | 5.2 | 10.4 | 0.00 | 0.00 | 0.00 | 83 | 1012.5 |
| 20260502232007 | 62 | 288 | 3.5 | 10.4 | 0.00 | 0.00 | 0.00 | 81 | 1012.5 |
| 20260502231007 | 62 | 288 | 1.7 | 8.7 | 0.00 | 0.00 | 0.00 | 83 | 1012.6 |
| 20260502230007 | 61 | 240 | 1.7 | 8.7 | 0.00 | 0.00 | 0.00 | 84 | 1012.7 |